createdAt,value
2023-02-19T00:02:03.490Z,96.66
2023-02-19T00:04:33.444Z,96.76
2023-02-19T00:07:01.915Z,96.91
2023-02-19T00:09:30.854Z,97.16
2023-02-19T00:11:59.095Z,97.52
2023-02-19T00:14:27.615Z,97.78
2023-02-19T00:16:55.916Z,97.75
2023-02-19T00:19:24.259Z,97.61
2023-02-19T00:21:54.502Z,97.40
2023-02-19T00:24:23.572Z,97.11
2023-02-19T00:26:52.212Z,97.33
2023-02-19T00:29:22.736Z,97.06
2023-02-19T00:31:52.020Z,97.68
2023-02-19T00:34:20.443Z,97.78
2023-02-19T00:36:48.754Z,98.10
2023-02-19T00:39:18.917Z,97.79
2023-02-19T00:41:47.587Z,97.66
2023-02-19T00:44:16.651Z,97.95
2023-02-19T00:46:47.878Z,97.79
2023-02-19T00:49:19.631Z,97.91
2023-02-19T00:51:48.224Z,98.00
2023-02-19T00:54:18.084Z,98.12
2023-02-19T00:56:47.266Z,98.07
2023-02-19T00:59:16.392Z,98.66
2023-02-19T01:01:46.193Z,98.52
2023-02-19T01:04:16.389Z,98.07
2023-02-19T01:06:44.984Z,97.91
2023-02-19T01:09:13.608Z,97.89
2023-02-19T01:11:44.166Z,97.84
2023-02-19T01:14:12.962Z,96.70
2023-02-19T01:16:41.298Z,95.95
2023-02-19T01:19:09.580Z,96.01
2023-02-19T01:21:37.850Z,96.03
2023-02-19T01:24:06.618Z,96.43
2023-02-19T01:26:35.175Z,96.40
2023-02-19T01:29:06.352Z,95.63
2023-02-19T01:31:36.552Z,95.30
2023-02-19T01:34:06.409Z,94.82
2023-02-19T01:36:36.845Z,95.11
2023-02-19T01:39:07.510Z,94.25
2023-02-19T01:41:39.617Z,93.31
2023-02-19T01:44:49.168Z,92.33
2023-02-19T01:47:20.403Z,91.27
2023-02-19T01:49:54.374Z,90.54
2023-02-19T01:52:26.870Z,90.39
2023-02-19T01:54:57.070Z,90.87
2023-02-19T01:57:29.117Z,90.97
2023-02-19T02:00:04.931Z,91.58
2023-02-19T02:02:43.960Z,91.81
2023-02-19T02:05:23.052Z,91.74
2023-02-19T02:08:09.539Z,91.75
2023-02-19T02:10:38.093Z,91.74
2023-02-19T02:13:06.478Z,91.20
2023-02-19T02:15:45.883Z,90.95
2023-02-19T02:18:24.192Z,90.91
2023-02-19T02:21:13.238Z,91.46
2023-02-19T02:23:57.258Z,91.94
2023-02-19T02:26:47.240Z,93.98
2023-02-19T02:29:37.322Z,95.95
2023-02-19T02:32:12.846Z,97.27
2023-02-19T02:34:49.057Z,98.29
2023-02-19T02:37:18.285Z,99.61
2023-02-19T02:39:48.000Z,100.00
2023-02-19T02:42:28.224Z,100.00
2023-02-19T02:45:43.094Z,100.00
2023-02-19T02:48:34.417Z,100.00
2023-02-19T02:51:11.779Z,100.00
2023-02-19T02:54:11.942Z,100.00
2023-02-19T02:56:42.886Z,100.00
2023-02-19T02:59:14.631Z,100.00
2023-02-19T03:02:05.668Z,100.00
2023-02-19T03:05:06.187Z,100.00
2023-02-19T03:07:41.590Z,100.00
2023-02-19T03:10:15.233Z,100.00
2023-02-19T03:13:04.851Z,100.00
2023-02-19T03:15:56.013Z,100.00
2023-02-19T03:18:45.459Z,100.00
2023-02-19T03:21:18.583Z,100.00
2023-02-19T03:24:05.827Z,100.00
2023-02-19T03:26:35.829Z,100.00
2023-02-19T03:29:26.070Z,100.00
2023-02-19T03:32:06.072Z,100.00
2023-02-19T03:34:39.284Z,100.00
2023-02-19T03:37:15.908Z,100.00
2023-02-19T03:39:47.716Z,100.00
2023-02-19T03:42:32.537Z,100.00
2023-02-19T03:45:24.445Z,100.00
2023-02-19T03:47:59.348Z,100.00
2023-02-19T03:50:35.386Z,100.00
2023-02-19T03:53:13.360Z,100.00
2023-02-19T03:55:52.984Z,100.00
2023-02-19T03:58:28.077Z,100.00
2023-02-19T04:00:59.826Z,100.00
2023-02-19T04:03:35.647Z,100.00
2023-02-19T04:06:06.950Z,100.00
2023-02-19T04:08:38.064Z,100.00
2023-02-19T04:11:08.428Z,100.00
2023-02-19T04:13:45.064Z,100.00
2023-02-19T04:16:21.578Z,100.00
2023-02-19T04:18:55.896Z,100.00
2023-02-19T04:21:25.520Z,100.00
2023-02-19T04:23:55.401Z,100.00
2023-02-19T04:26:24.659Z,100.00
2023-02-19T04:28:52.941Z,100.00
2023-02-19T04:31:21.839Z,100.00
2023-02-19T04:33:50.857Z,100.00
2023-02-19T04:36:19.549Z,100.00
2023-02-19T04:38:48.548Z,100.00
2023-02-19T04:41:18.181Z,100.00
2023-02-19T04:43:46.555Z,100.00
2023-02-19T04:46:14.910Z,100.00
2023-02-19T04:48:44.334Z,100.00
2023-02-19T04:51:13.103Z,100.00
2023-02-19T04:53:41.579Z,100.00
2023-02-19T04:56:12.269Z,100.00
2023-02-19T04:58:42.849Z,100.00
2023-02-19T05:01:11.784Z,100.00
2023-02-19T05:03:40.539Z,98.27
2023-02-19T05:06:13.507Z,97.15
2023-02-19T05:08:42.462Z,96.22
2023-02-19T05:11:12.845Z,96.30
2023-02-19T05:13:42.801Z,95.88
2023-02-19T05:16:15.833Z,94.97
2023-02-19T05:18:46.787Z,95.71
2023-02-19T05:21:16.450Z,95.28
2023-02-19T05:23:45.297Z,94.97
2023-02-19T05:26:17.778Z,94.76
2023-02-19T05:28:48.861Z,93.20
2023-02-19T05:31:18.218Z,93.76
2023-02-19T05:33:50.873Z,94.19
2023-02-19T05:36:21.098Z,93.39
2023-02-19T05:38:53.348Z,92.80
2023-02-19T05:41:24.209Z,93.46
2023-02-19T05:43:54.618Z,92.58
2023-02-19T05:46:25.538Z,91.75
2023-02-19T05:48:55.078Z,91.94
2023-02-19T05:51:26.282Z,92.63
2023-02-19T05:53:56.737Z,92.82
2023-02-19T05:56:32.324Z,92.88
2023-02-19T05:59:04.592Z,92.10
2023-02-19T06:01:33.542Z,92.04
2023-02-19T06:04:01.991Z,92.33
2023-02-19T06:06:30.384Z,92.17
2023-02-19T06:08:58.955Z,92.24
2023-02-19T06:11:27.270Z,91.63
2023-02-19T06:13:55.635Z,91.41
2023-02-19T06:16:25.564Z,90.38
2023-02-19T06:18:54.044Z,91.04
2023-02-19T06:21:22.553Z,90.26
2023-02-19T06:23:51.093Z,89.43
2023-02-19T06:26:22.140Z,88.36
2023-02-19T06:28:53.312Z,88.03
2023-02-19T06:31:24.695Z,88.11
2023-02-19T06:33:52.960Z,88.35
2023-02-19T06:36:22.944Z,88.81
2023-02-19T06:38:51.746Z,89.39
2023-02-19T06:41:20.370Z,89.89
2023-02-19T06:43:48.707Z,89.64
2023-02-19T06:46:17.076Z,89.48
2023-02-19T06:48:46.989Z,88.21
2023-02-19T06:51:18.707Z,87.37
2023-02-19T06:53:47.600Z,87.38
2023-02-19T06:56:26.711Z,86.35
2023-02-19T06:58:57.156Z,84.45
2023-02-19T07:01:25.969Z,84.85
2023-02-19T07:03:56.089Z,84.18
2023-02-19T07:06:26.234Z,83.34
2023-02-19T07:08:56.550Z,83.33
2023-02-19T07:11:25.784Z,82.02
2023-02-19T07:13:56.758Z,82.48
2023-02-19T07:16:25.944Z,82.92
2023-02-19T07:18:57.905Z,82.34
2023-02-19T07:21:28.750Z,82.10
2023-02-19T07:23:58.018Z,81.93
2023-02-19T07:26:26.750Z,82.56
2023-02-19T07:28:55.525Z,82.82
2023-02-19T07:31:25.488Z,81.92
2023-02-19T07:33:55.560Z,82.80
2023-02-19T07:36:25.530Z,82.60
2023-02-19T07:38:57.760Z,82.66
2023-02-19T07:41:27.358Z,82.55
2023-02-19T07:43:59.029Z,82.90
2023-02-19T07:46:27.303Z,82.65
2023-02-19T07:48:57.047Z,81.26
2023-02-19T07:51:25.454Z,80.22
2023-02-19T07:53:53.711Z,79.74
2023-02-19T07:56:22.218Z,79.31
2023-02-19T07:58:50.745Z,79.65
2023-02-19T08:01:42.060Z,79.34
2023-02-19T08:04:12.752Z,78.96
2023-02-19T08:06:41.700Z,78.52
2023-02-19T08:09:10.252Z,78.77
2023-02-19T08:11:56.217Z,79.41
2023-02-19T08:14:27.208Z,79.46
2023-02-19T08:16:56.023Z,78.92
2023-02-19T08:19:26.038Z,78.48
2023-02-19T08:21:54.516Z,78.58
2023-02-19T08:24:22.823Z,78.67
2023-02-19T08:26:51.326Z,79.32
2023-02-19T08:29:19.888Z,79.05
2023-02-19T08:31:48.327Z,78.96
2023-02-19T08:34:17.066Z,78.94
2023-02-19T08:36:46.744Z,79.25
2023-02-19T08:39:15.225Z,79.31
2023-02-19T08:41:43.658Z,79.18
2023-02-19T08:44:11.836Z,79.28
2023-02-19T08:46:40.272Z,78.79
2023-02-19T08:49:08.687Z,79.21
2023-02-19T08:51:37.804Z,78.38
2023-02-19T08:54:07.744Z,77.88
2023-02-19T08:56:36.179Z,77.54
2023-02-19T08:59:04.466Z,77.77
2023-02-19T09:01:32.948Z,78.39
2023-02-19T09:04:01.425Z,77.63
2023-02-19T09:06:29.892Z,77.75
2023-02-19T09:08:58.256Z,77.38
2023-02-19T09:11:28.096Z,77.78
2023-02-19T09:13:57.446Z,77.18
2023-02-19T09:16:25.845Z,76.57
2023-02-19T09:18:54.182Z,77.24
2023-02-19T09:21:22.888Z,77.76
2023-02-19T09:23:51.417Z,78.30
2023-02-19T09:26:19.853Z,77.62
2023-02-19T09:28:49.516Z,75.84
2023-02-19T09:31:18.500Z,75.35
2023-02-19T09:33:48.566Z,75.71
2023-02-19T09:36:18.691Z,75.33
2023-02-19T09:38:47.187Z,75.06
2023-02-19T09:41:31.799Z,74.80
2023-02-19T09:44:04.874Z,74.82
2023-02-19T09:46:37.187Z,74.10
2023-02-19T09:49:08.912Z,72.19
2023-02-19T09:51:39.234Z,72.00
2023-02-19T09:54:14.729Z,71.00
2023-02-19T09:56:43.194Z,71.27
2023-02-19T09:59:21.182Z,71.55
2023-02-19T10:01:57.389Z,71.27
2023-02-19T10:04:26.046Z,70.01
2023-02-19T10:06:58.947Z,69.33
2023-02-19T10:09:30.399Z,69.74
2023-02-19T10:12:00.960Z,69.63
2023-02-19T10:14:40.174Z,67.40
2023-02-19T10:17:22.003Z,67.27
2023-02-19T10:19:50.764Z,67.93
2023-02-19T10:22:19.730Z,68.38
2023-02-19T10:24:54.422Z,67.65
2023-02-19T10:27:22.960Z,65.95
2023-02-19T10:29:56.417Z,66.30
2023-02-19T10:32:29.517Z,66.43
2023-02-19T10:35:13.183Z,66.19
2023-02-19T10:37:47.103Z,65.94
2023-02-19T10:40:21.422Z,66.00
2023-02-19T10:42:51.828Z,65.59
2023-02-19T10:45:27.362Z,65.63
2023-02-19T10:47:55.897Z,65.31
2023-02-19T10:50:31.584Z,66.85
2023-02-19T10:53:02.168Z,68.06
2023-02-19T10:55:37.710Z,66.34
2023-02-19T10:58:34.479Z,66.00
2023-02-19T11:01:20.652Z,64.71
2023-02-19T11:03:50.408Z,65.04
2023-02-19T11:06:22.742Z,64.41
2023-02-19T11:08:59.471Z,63.95
2023-02-19T11:11:35.284Z,64.39
2023-02-19T11:14:15.236Z,65.07
2023-02-19T11:16:48.341Z,64.57
2023-02-19T11:19:30.523Z,65.27
2023-02-19T11:22:01.058Z,64.75
2023-02-19T11:24:37.938Z,65.21
2023-02-19T11:27:15.264Z,65.23
2023-02-19T11:29:44.721Z,65.11
2023-02-19T11:32:30.548Z,66.05
2023-02-19T11:35:22.586Z,65.63
2023-02-19T11:38:00.701Z,65.95
2023-02-19T11:40:42.579Z,65.38
2023-02-19T11:43:27.819Z,65.52
2023-02-19T11:46:02.532Z,66.17
2023-02-19T11:48:56.976Z,64.65
2023-02-19T11:51:52.691Z,64.79
2023-02-19T11:54:48.641Z,64.92
2023-02-19T11:57:36.516Z,65.62
2023-02-19T12:00:30.934Z,64.79
2023-02-19T12:03:38.154Z,65.14
2023-02-19T12:06:24.839Z,65.42
2023-02-19T12:09:30.330Z,65.30
2023-02-19T12:12:21.609Z,65.19
2023-02-19T12:15:28.185Z,64.58
2023-02-19T12:18:31.272Z,64.60
2023-02-19T12:21:18.891Z,64.74
2023-02-19T12:24:32.489Z,65.00
2023-02-19T12:27:18.313Z,63.66
2023-02-19T12:30:04.769Z,63.98
2023-02-19T12:33:18.293Z,64.00
2023-02-19T12:35:55.850Z,63.28
2023-02-19T12:38:35.207Z,62.94
2023-02-19T12:41:29.529Z,62.73
2023-02-19T12:44:04.274Z,63.44
2023-02-19T12:46:37.356Z,63.53
2023-02-19T12:49:13.689Z,63.87
2023-02-19T12:51:47.837Z,63.25
2023-02-19T12:54:25.640Z,63.63
2023-02-19T12:57:01.269Z,63.22
2023-02-19T12:59:35.046Z,62.77
2023-02-19T13:02:14.353Z,62.96
2023-02-19T13:04:50.171Z,63.24
2023-02-19T13:07:26.376Z,63.89
2023-02-19T13:10:02.064Z,63.76
2023-02-19T13:12:35.538Z,63.93
2023-02-19T13:15:11.093Z,63.48
2023-02-19T13:17:45.806Z,63.86
2023-02-19T13:20:21.605Z,63.50
2023-02-19T13:23:19.859Z,63.15
2023-02-19T13:26:13.089Z,62.40
2023-02-19T13:29:09.317Z,61.56
2023-02-19T13:32:04.800Z,62.19
2023-02-19T13:34:52.545Z,63.19
2023-02-19T13:37:22.238Z,63.70
2023-02-19T13:39:52.724Z,63.76
2023-02-19T13:42:28.746Z,63.98
2023-02-19T13:44:58.848Z,64.16
2023-02-19T13:47:51.261Z,66.47
2023-02-19T13:50:22.695Z,66.96
2023-02-19T13:52:52.365Z,67.55
2023-02-19T13:55:55.022Z,67.73
2023-02-19T13:58:55.923Z,67.04
2023-02-19T14:02:14.369Z,67.49
2023-02-19T14:04:51.963Z,67.85
2023-02-19T14:08:03.783Z,70.74
2023-02-19T14:11:02.648Z,70.84
2023-02-19T14:14:06.543Z,69.78
2023-02-19T14:16:53.125Z,70.07
2023-02-19T14:19:51.744Z,71.09
2023-02-19T14:23:10.934Z,71.47
2023-02-19T14:25:55.078Z,71.73
2023-02-19T14:28:33.412Z,71.36
2023-02-19T14:31:12.294Z,71.01
2023-02-19T14:33:47.305Z,70.41
2023-02-19T14:36:44.095Z,70.56
2023-02-19T14:39:17.562Z,69.86
2023-02-19T14:41:49.908Z,69.54
2023-02-19T14:44:24.956Z,68.56
2023-02-19T14:47:00.924Z,68.88
2023-02-19T14:49:35.981Z,68.88
2023-02-19T14:52:07.717Z,68.10
2023-02-19T14:54:42.820Z,66.39
2023-02-19T14:57:19.418Z,65.74
2023-02-19T14:59:56.025Z,65.62
2023-02-19T15:02:27.384Z,65.71
2023-02-19T15:04:56.600Z,65.08
2023-02-19T15:07:29.892Z,66.07
2023-02-19T15:10:05.035Z,64.68
2023-02-19T15:12:45.808Z,63.88
2023-02-19T15:15:20.249Z,63.31
2023-02-19T15:17:51.506Z,63.55
2023-02-19T15:20:23.710Z,63.54
2023-02-19T15:22:53.460Z,64.23
2023-02-19T15:25:24.349Z,64.04
2023-02-19T15:27:52.907Z,64.19
2023-02-19T15:30:25.070Z,63.98
2023-02-19T15:32:58.103Z,64.60
2023-02-19T15:35:28.300Z,64.21
2023-02-19T15:37:57.296Z,63.92
2023-02-19T15:40:31.451Z,64.28
2023-02-19T15:43:01.042Z,64.63
2023-02-19T15:45:36.342Z,64.79
2023-02-19T15:48:11.664Z,64.73
2023-02-19T15:50:45.335Z,64.82
2023-02-19T15:53:18.455Z,64.92
2023-02-19T15:55:51.195Z,65.47
2023-02-19T15:58:27.769Z,66.11
2023-02-19T16:00:59.247Z,66.18
2023-02-19T16:03:31.267Z,66.59
2023-02-19T16:06:01.716Z,66.28
2023-02-19T16:08:33.671Z,66.51
2023-02-19T16:11:04.872Z,66.36
2023-02-19T16:13:35.409Z,66.25
2023-02-19T16:16:16.045Z,66.64
2023-02-19T16:18:50.130Z,66.55
2023-02-19T16:21:24.571Z,67.39
2023-02-19T16:24:00.572Z,66.79
2023-02-19T16:26:32.475Z,66.69
2023-02-19T16:29:00.852Z,67.21
2023-02-19T16:31:29.833Z,67.75
2023-02-19T16:34:18.693Z,67.62
2023-02-19T16:36:49.214Z,68.30
2023-02-19T16:39:25.365Z,68.43
2023-02-19T16:42:17.724Z,69.62
2023-02-19T16:44:49.809Z,69.42
2023-02-19T16:47:30.850Z,70.14
2023-02-19T16:50:04.302Z,70.21
2023-02-19T16:52:32.858Z,70.02
2023-02-19T16:55:01.774Z,70.33
2023-02-19T16:57:30.205Z,70.56
2023-02-19T16:59:58.733Z,70.55
2023-02-19T17:02:27.518Z,70.54
2023-02-19T17:04:56.273Z,70.65
2023-02-19T17:07:27.546Z,70.96
2023-02-19T17:09:55.885Z,70.77
2023-02-19T17:12:24.547Z,70.74
2023-02-19T17:14:52.852Z,70.76
2023-02-19T17:17:21.375Z,71.33
2023-02-19T17:19:49.687Z,71.54
2023-02-19T17:22:18.152Z,71.79
2023-02-19T17:24:48.339Z,71.43
2023-02-19T17:27:16.959Z,71.38
2023-02-19T17:29:45.385Z,71.78
2023-02-19T17:32:14.652Z,72.11
2023-02-19T17:34:43.612Z,72.40
2023-02-19T17:37:12.009Z,72.09
2023-02-19T17:39:40.457Z,72.77
2023-02-19T17:42:10.341Z,72.89
2023-02-19T17:44:38.735Z,72.75
2023-02-19T17:47:07.326Z,73.21
2023-02-19T17:49:36.319Z,73.26
2023-02-19T17:52:05.660Z,73.11
2023-02-19T17:54:34.337Z,73.36
2023-02-19T17:57:02.843Z,73.57
2023-02-19T17:59:32.638Z,73.97
2023-02-19T18:02:01.959Z,74.18
2023-02-19T18:04:30.444Z,73.80
2023-02-19T18:06:59.231Z,73.31
2023-02-19T18:09:27.598Z,73.65
2023-02-19T18:11:56.128Z,73.35
2023-02-19T18:14:25.089Z,73.05
2023-02-19T18:16:54.935Z,73.65
2023-02-19T18:19:23.697Z,73.24
2023-02-19T18:21:52.061Z,72.78
2023-02-19T18:24:20.649Z,73.72
2023-02-19T18:26:49.009Z,72.67
2023-02-19T18:29:18.582Z,72.98
2023-02-19T18:31:47.050Z,72.85
2023-02-19T18:34:19.935Z,72.28
2023-02-19T18:36:50.088Z,73.06
2023-02-19T18:39:18.649Z,73.13
2023-02-19T18:41:51.017Z,73.39
2023-02-19T18:44:20.406Z,72.66
2023-02-19T18:46:48.711Z,72.22
2023-02-19T18:49:19.346Z,72.52
2023-02-19T18:51:48.175Z,73.00
2023-02-19T18:54:16.684Z,72.79
2023-02-19T18:56:46.370Z,73.02
2023-02-19T18:59:15.119Z,73.00
2023-02-19T19:01:43.907Z,73.02
2023-02-19T19:04:12.439Z,72.55
2023-02-19T19:06:42.196Z,72.33
2023-02-19T19:09:10.749Z,71.84
2023-02-19T19:11:39.163Z,72.63
2023-02-19T19:14:07.498Z,72.11
2023-02-19T19:16:36.076Z,71.53
2023-02-19T19:19:04.732Z,71.93
2023-02-19T19:21:33.543Z,71.99
2023-02-19T19:24:03.311Z,71.51
2023-02-19T19:26:31.805Z,71.85
2023-02-19T19:29:00.454Z,71.43
2023-02-19T19:31:36.451Z,71.30
2023-02-19T19:34:05.308Z,70.77
2023-02-19T19:36:33.758Z,71.35
2023-02-19T19:39:04.146Z,71.34
2023-02-19T19:41:32.973Z,72.07
2023-02-19T19:44:04.847Z,71.77
2023-02-19T19:46:33.401Z,71.65
2023-02-19T19:49:01.939Z,72.06
2023-02-19T19:51:35.079Z,71.79
2023-02-19T19:54:05.465Z,71.99
2023-02-19T19:56:33.909Z,72.06
2023-02-19T19:59:02.234Z,72.21
2023-02-19T20:01:30.696Z,71.55
2023-02-19T20:03:59.063Z,72.30
2023-02-19T20:06:29.711Z,72.25
2023-02-19T20:08:59.583Z,72.59
2023-02-19T20:11:29.584Z,72.74
2023-02-19T20:13:57.978Z,72.57
2023-02-19T20:16:27.899Z,72.81
2023-02-19T20:18:56.427Z,72.96
2023-02-19T20:21:25.753Z,73.21
2023-02-19T20:23:53.992Z,73.47
2023-02-19T20:26:24.424Z,73.72
2023-02-19T20:28:54.300Z,73.89
2023-02-19T20:31:23.362Z,73.69
2023-02-19T20:33:52.111Z,74.52
2023-02-19T20:36:21.156Z,74.48
2023-02-19T20:38:50.950Z,75.87
2023-02-19T20:41:19.259Z,75.64
2023-02-19T20:43:47.494Z,75.02
2023-02-19T20:46:17.234Z,74.69
2023-02-19T20:48:46.185Z,75.12
2023-02-19T20:51:14.832Z,74.98
2023-02-19T20:53:43.652Z,74.92
2023-02-19T20:56:12.690Z,75.41
2023-02-19T20:58:43.838Z,75.08
2023-02-19T21:01:12.890Z,75.19
2023-02-19T21:03:42.617Z,75.13
2023-02-19T21:06:11.335Z,75.40
2023-02-19T21:08:39.750Z,75.15
2023-02-19T21:11:08.145Z,74.80
2023-02-19T21:13:37.588Z,75.24
2023-02-19T21:16:06.747Z,75.05
2023-02-19T21:18:35.092Z,75.08
2023-02-19T21:21:04.958Z,74.53
2023-02-19T21:23:33.300Z,74.48
2023-02-19T21:26:03.525Z,74.85
2023-02-19T21:28:31.843Z,74.64
2023-02-19T21:31:00.322Z,74.79
2023-02-19T21:33:28.796Z,75.00
2023-02-19T21:36:00.210Z,74.63
2023-02-19T21:38:31.834Z,74.56
2023-02-19T21:41:01.074Z,74.75
2023-02-19T21:43:30.255Z,74.61
2023-02-19T21:45:58.612Z,75.30
2023-02-19T21:48:27.034Z,75.15
2023-02-19T21:50:57.927Z,74.99
2023-02-19T21:53:28.821Z,75.15
2023-02-19T21:55:59.146Z,75.09
2023-02-19T21:58:27.736Z,75.03
2023-02-19T22:00:58.044Z,75.06
2023-02-19T22:03:26.962Z,75.41
2023-02-19T22:05:56.091Z,75.05
2023-02-19T22:08:24.530Z,75.53
2023-02-19T22:10:54.100Z,75.70
2023-02-19T22:13:22.553Z,76.07
2023-02-19T22:15:51.114Z,76.34
2023-02-19T22:18:20.081Z,75.86
2023-02-19T22:20:48.371Z,75.93
2023-02-19T22:23:16.805Z,76.20
2023-02-19T22:25:45.105Z,76.22
2023-02-19T22:28:14.815Z,76.29
2023-02-19T22:30:43.116Z,76.42
2023-02-19T22:33:11.617Z,76.64
2023-02-19T22:35:40.349Z,76.36
2023-02-19T22:38:08.728Z,76.72
2023-02-19T22:40:37.985Z,76.87
2023-02-19T22:43:18.144Z,77.20
2023-02-19T22:45:47.775Z,77.45
2023-02-19T22:48:25.156Z,77.68
2023-02-19T22:50:58.816Z,77.94
2023-02-19T22:53:27.142Z,78.13
2023-02-19T22:55:55.357Z,78.11
2023-02-19T22:58:25.165Z,78.03
2023-02-19T23:00:53.544Z,78.07
2023-02-19T23:03:21.871Z,78.23
2023-02-19T23:05:50.330Z,78.22
2023-02-19T23:08:18.857Z,78.55
2023-02-19T23:10:47.196Z,78.41
2023-02-19T23:13:15.605Z,78.70
2023-02-19T23:15:45.555Z,78.68
2023-02-19T23:18:13.866Z,78.60
2023-02-19T23:20:42.214Z,79.12
2023-02-19T23:23:10.516Z,79.22
2023-02-19T23:25:38.774Z,79.32
2023-02-19T23:28:07.085Z,78.96
2023-02-19T23:30:35.734Z,79.16
2023-02-19T23:33:05.559Z,78.94
2023-02-19T23:35:33.945Z,79.04
2023-02-19T23:38:02.205Z,79.07
2023-02-19T23:40:30.662Z,78.99
2023-02-19T23:42:59.449Z,79.23
2023-02-19T23:45:27.917Z,78.68
2023-02-19T23:47:56.207Z,78.68
2023-02-19T23:50:26.066Z,78.21
2023-02-19T23:52:56.334Z,78.19
2023-02-19T23:55:24.649Z,78.83
2023-02-19T23:57:53.538Z,78.64
